sensor_id;sensor_type;location;lat;lon;timestamp;P1;durP1;ratioP1;P2;durP2;ratioP2
44358;SDS011;30077;52.474;13.326;2022-10-26T00:04:25;20.33;;;11.25;;
44358;SDS011;30077;52.474;13.326;2022-10-26T00:09:25;21.90;;;11.98;;
44358;SDS011;30077;52.474;13.326;2022-10-26T00:14:26;24.20;;;12.10;;
44358;SDS011;30077;52.474;13.326;2022-10-26T00:19:26;18.73;;;12.00;;
44358;SDS011;30077;52.474;13.326;2022-10-26T00:24:27;23.53;;;11.90;;
44358;SDS011;30077;52.474;13.326;2022-10-26T00:29:27;18.05;;;11.32;;
44358;SDS011;30077;52.474;13.326;2022-10-26T00:34:27;19.45;;;11.63;;
44358;SDS011;30077;52.474;13.326;2022-10-26T00:39:27;15.80;;;10.13;;
44358;SDS011;30077;52.474;13.326;2022-10-26T00:49:46;16.48;;;11.57;;
44358;SDS011;30077;52.474;13.326;2022-10-26T00:54:50;18.92;;;10.13;;
44358;SDS011;30077;52.474;13.326;2022-10-26T00:59:53;23.52;;;10.73;;
44358;SDS011;30077;52.474;13.326;2022-10-26T01:04:56;18.63;;;10.68;;
44358;SDS011;30077;52.474;13.326;2022-10-26T01:09:57;17.27;;;11.00;;
44358;SDS011;30077;52.474;13.326;2022-10-26T01:14:59;18.52;;;10.98;;
44358;SDS011;30077;52.474;13.326;2022-10-26T01:25:24;19.42;;;10.80;;
44358;SDS011;30077;52.474;13.326;2022-10-26T01:30:46;19.25;;;10.18;;
44358;SDS011;30077;52.474;13.326;2022-10-26T01:36:08;15.23;;;10.52;;
44358;SDS011;30077;52.474;13.326;2022-10-26T01:41:25;15.68;;;9.82;;
44358;SDS011;30077;52.474;13.326;2022-10-26T01:46:34;21.95;;;10.82;;
44358;SDS011;30077;52.474;13.326;2022-10-26T01:51:38;22.27;;;10.45;;
44358;SDS011;30077;52.474;13.326;2022-10-26T01:56:41;16.75;;;10.60;;
44358;SDS011;30077;52.474;13.326;2022-10-26T02:12:24;22.03;;;9.77;;
44358;SDS011;30077;52.474;13.326;2022-10-26T02:17:45;17.83;;;10.38;;
44358;SDS011;30077;52.474;13.326;2022-10-26T02:22:54;16.67;;;9.43;;
44358;SDS011;30077;52.474;13.326;2022-10-26T02:27:56;15.05;;;9.85;;
44358;SDS011;30077;52.474;13.326;2022-10-26T02:33:01;16.67;;;9.88;;
44358;SDS011;30077;52.474;13.326;2022-10-26T02:38:04;15.83;;;9.67;;
44358;SDS011;30077;52.474;13.326;2022-10-26T02:43:10;15.63;;;10.52;;
44358;SDS011;30077;52.474;13.326;2022-10-26T02:48:13;16.38;;;10.88;;
44358;SDS011;30077;52.474;13.326;2022-10-26T02:53:22;14.85;;;9.38;;
44358;SDS011;30077;52.474;13.326;2022-10-26T02:58:27;16.77;;;9.37;;
44358;SDS011;30077;52.474;13.326;2022-10-26T03:03:31;14.98;;;10.05;;
44358;SDS011;30077;52.474;13.326;2022-10-26T03:08:31;19.95;;;9.73;;
44358;SDS011;30077;52.474;13.326;2022-10-26T03:13:32;15.70;;;9.73;;
44358;SDS011;30077;52.474;13.326;2022-10-26T03:18:32;17.33;;;9.65;;
44358;SDS011;30077;52.474;13.326;2022-10-26T03:23:32;21.23;;;9.50;;
44358;SDS011;30077;52.474;13.326;2022-10-26T03:28:32;15.73;;;9.87;;
44358;SDS011;30077;52.474;13.326;2022-10-26T03:33:33;18.15;;;9.63;;
44358;SDS011;30077;52.474;13.326;2022-10-26T03:38:33;15.82;;;8.68;;
44358;SDS011;30077;52.474;13.326;2022-10-26T03:43:33;16.10;;;8.87;;
44358;SDS011;30077;52.474;13.326;2022-10-26T03:48:33;15.70;;;9.57;;
44358;SDS011;30077;52.474;13.326;2022-10-26T03:53:34;13.95;;;8.75;;
44358;SDS011;30077;52.474;13.326;2022-10-26T03:58:34;12.97;;;8.70;;
44358;SDS011;30077;52.474;13.326;2022-10-26T04:03:34;17.85;;;9.27;;
44358;SDS011;30077;52.474;13.326;2022-10-26T04:08:34;14.52;;;9.05;;
44358;SDS011;30077;52.474;13.326;2022-10-26T04:13:35;13.43;;;8.65;;
44358;SDS011;30077;52.474;13.326;2022-10-26T04:18:35;13.23;;;9.23;;
44358;SDS011;30077;52.474;13.326;2022-10-26T04:23:35;21.60;;;9.60;;
44358;SDS011;30077;52.474;13.326;2022-10-26T04:28:35;16.60;;;9.13;;
44358;SDS011;30077;52.474;13.326;2022-10-26T04:33:36;18.60;;;9.75;;
44358;SDS011;30077;52.474;13.326;2022-10-26T04:38:36;13.55;;;9.05;;
44358;SDS011;30077;52.474;13.326;2022-10-26T04:43:36;13.13;;;8.30;;
44358;SDS011;30077;52.474;13.326;2022-10-26T04:48:36;14.35;;;9.48;;
44358;SDS011;30077;52.474;13.326;2022-10-26T04:53:37;15.95;;;10.18;;
44358;SDS011;30077;52.474;13.326;2022-10-26T04:58:37;17.42;;;9.63;;
44358;SDS011;30077;52.474;13.326;2022-10-26T05:03:37;17.48;;;9.60;;
44358;SDS011;30077;52.474;13.326;2022-10-26T05:08:37;13.45;;;8.90;;
44358;SDS011;30077;52.474;13.326;2022-10-26T05:13:38;21.35;;;9.57;;
44358;SDS011;30077;52.474;13.326;2022-10-26T05:18:38;19.08;;;10.10;;
44358;SDS011;30077;52.474;13.326;2022-10-26T05:23:38;23.05;;;10.77;;
44358;SDS011;30077;52.474;13.326;2022-10-26T05:28:39;20.48;;;10.00;;
44358;SDS011;30077;52.474;13.326;2022-10-26T05:33:39;19.17;;;10.27;;
44358;SDS011;30077;52.474;13.326;2022-10-26T05:38:39;15.95;;;9.73;;
44358;SDS011;30077;52.474;13.326;2022-10-26T05:43:40;15.00;;;10.05;;
44358;SDS011;30077;52.474;13.326;2022-10-26T05:48:40;15.35;;;10.02;;
44358;SDS011;30077;52.474;13.326;2022-10-26T05:53:40;18.75;;;10.90;;
44358;SDS011;30077;52.474;13.326;2022-10-26T05:58:40;16.90;;;10.13;;
44358;SDS011;30077;52.474;13.326;2022-10-26T06:09:10;20.30;;;11.35;;
44358;SDS011;30077;52.474;13.326;2022-10-26T06:14:11;19.42;;;11.52;;
44358;SDS011;30077;52.474;13.326;2022-10-26T06:19:15;17.40;;;10.55;;
44358;SDS011;30077;52.474;13.326;2022-10-26T06:24:31;23.13;;;11.77;;
44358;SDS011;30077;52.474;13.326;2022-10-26T06:29:37;21.90;;;12.40;;
44358;SDS011;30077;52.474;13.326;2022-10-26T06:34:49;24.35;;;14.18;;
44358;SDS011;30077;52.474;13.326;2022-10-26T06:39:55;20.80;;;11.38;;
44358;SDS011;30077;52.474;13.326;2022-10-26T06:44:57;20.25;;;11.38;;
44358;SDS011;30077;52.474;13.326;2022-10-26T06:50:01;23.13;;;11.38;;
44358;SDS011;30077;52.474;13.326;2022-10-26T06:55:14;17.05;;;11.27;;
44358;SDS011;30077;52.474;13.326;2022-10-26T07:00:19;26.52;;;14.45;;
44358;SDS011;30077;52.474;13.326;2022-10-26T07:05:20;17.90;;;11.48;;
44358;SDS011;30077;52.474;13.326;2022-10-26T07:10:21;20.58;;;11.98;;
44358;SDS011;30077;52.474;13.326;2022-10-26T07:15:21;17.92;;;12.13;;
44358;SDS011;30077;52.474;13.326;2022-10-26T07:20:23;19.70;;;12.98;;
44358;SDS011;30077;52.474;13.326;2022-10-26T07:25:24;17.88;;;11.55;;
44358;SDS011;30077;52.474;13.326;2022-10-26T07:30:25;16.87;;;10.67;;
44358;SDS011;30077;52.474;13.326;2022-10-26T07:35:27;15.90;;;10.30;;
44358;SDS011;30077;52.474;13.326;2022-10-26T07:40:27;19.17;;;11.27;;
44358;SDS011;30077;52.474;13.326;2022-10-26T07:45:28;17.05;;;9.85;;
44358;SDS011;30077;52.474;13.326;2022-10-26T07:50:29;16.50;;;10.65;;
44358;SDS011;30077;52.474;13.326;2022-10-26T07:55:29;17.48;;;10.43;;
44358;SDS011;30077;52.474;13.326;2022-10-26T08:00:29;14.70;;;10.07;;
44358;SDS011;30077;52.474;13.326;2022-10-26T08:05:29;14.23;;;9.43;;
44358;SDS011;30077;52.474;13.326;2022-10-26T08:10:30;12.52;;;9.45;;
44358;SDS011;30077;52.474;13.326;2022-10-26T08:15:30;12.95;;;9.65;;
44358;SDS011;30077;52.474;13.326;2022-10-26T08:20:30;12.05;;;9.68;;
44358;SDS011;30077;52.474;13.326;2022-10-26T08:25:31;17.95;;;11.40;;
44358;SDS011;30077;52.474;13.326;2022-10-26T08:30:32;20.30;;;12.23;;
44358;SDS011;30077;52.474;13.326;2022-10-26T08:35:33;13.68;;;9.48;;
44358;SDS011;30077;52.474;13.326;2022-10-26T08:40:35;16.05;;;9.88;;
44358;SDS011;30077;52.474;13.326;2022-10-26T08:45:39;12.63;;;9.55;;
44358;SDS011;30077;52.474;13.326;2022-10-26T08:50:51;16.23;;;10.02;;
44358;SDS011;30077;52.474;13.326;2022-10-26T08:55:55;15.05;;;9.48;;
44358;SDS011;30077;52.474;13.326;2022-10-26T09:01:00;17.02;;;10.10;;
44358;SDS011;30077;52.474;13.326;2022-10-26T09:06:06;14.98;;;9.30;;
44358;SDS011;30077;52.474;13.326;2022-10-26T09:16:27;13.27;;;9.07;;
44358;SDS011;30077;52.474;13.326;2022-10-26T09:21:43;14.63;;;9.60;;
44358;SDS011;30077;52.474;13.326;2022-10-26T09:26:57;13.52;;;8.68;;
44358;SDS011;30077;52.474;13.326;2022-10-26T09:32:29;15.85;;;7.85;;
44358;SDS011;30077;52.474;13.326;2022-10-26T09:37:43;11.10;;;8.88;;
44358;SDS011;30077;52.474;13.326;2022-10-26T09:53:40;11.70;;;7.65;;
44358;SDS011;30077;52.474;13.326;2022-10-26T09:58:41;16.67;;;7.47;;
44358;SDS011;30077;52.474;13.326;2022-10-26T10:03:46;12.82;;;9.02;;
44358;SDS011;30077;52.474;13.326;2022-10-26T10:14:14;12.80;;;7.82;;
44358;SDS011;30077;52.474;13.326;2022-10-26T10:19:20;11.35;;;7.57;;
44358;SDS011;30077;52.474;13.326;2022-10-26T10:24:30;11.65;;;6.75;;
44358;SDS011;30077;52.474;13.326;2022-10-26T10:29:32;10.25;;;7.13;;
44358;SDS011;30077;52.474;13.326;2022-10-26T10:34:38;10.60;;;6.70;;
44358;SDS011;30077;52.474;13.326;2022-10-26T10:39:39;9.83;;;5.90;;
44358;SDS011;30077;52.474;13.326;2022-10-26T10:44:41;9.60;;;5.40;;
44358;SDS011;30077;52.474;13.326;2022-10-26T10:49:42;9.27;;;5.65;;
44358;SDS011;30077;52.474;13.326;2022-10-26T10:54:52;13.15;;;7.53;;
44358;SDS011;30077;52.474;13.326;2022-10-26T11:00:09;9.43;;;6.38;;
44358;SDS011;30077;52.474;13.326;2022-10-26T11:05:19;8.98;;;6.43;;
44358;SDS011;30077;52.474;13.326;2022-10-26T11:10:26;11.25;;;6.50;;
44358;SDS011;30077;52.474;13.326;2022-10-26T11:15:32;8.23;;;5.70;;
44358;SDS011;30077;52.474;13.326;2022-10-26T11:20:37;10.52;;;6.40;;
44358;SDS011;30077;52.474;13.326;2022-10-26T11:25:49;7.97;;;6.20;;
44358;SDS011;30077;52.474;13.326;2022-10-26T11:30:54;9.73;;;6.18;;
44358;SDS011;30077;52.474;13.326;2022-10-26T11:36:08;8.40;;;5.32;;
44358;SDS011;30077;52.474;13.326;2022-10-26T11:41:28;10.23;;;6.70;;
44358;SDS011;30077;52.474;13.326;2022-10-26T11:46:35;6.45;;;4.32;;
44358;SDS011;30077;52.474;13.326;2022-10-26T11:51:42;4.93;;;4.20;;
44358;SDS011;30077;52.474;13.326;2022-10-26T11:56:46;6.07;;;4.70;;
44358;SDS011;30077;52.474;13.326;2022-10-26T12:01:50;5.95;;;4.57;;
44358;SDS011;30077;52.474;13.326;2022-10-26T12:06:53;6.05;;;4.03;;
44358;SDS011;30077;52.474;13.326;2022-10-26T12:11:57;7.83;;;4.23;;
44358;SDS011;30077;52.474;13.326;2022-10-26T12:17:10;9.82;;;4.65;;
44358;SDS011;30077;52.474;13.326;2022-10-26T12:22:15;4.63;;;3.80;;
44358;SDS011;30077;52.474;13.326;2022-10-26T12:27:28;3.47;;;3.17;;
44358;SDS011;30077;52.474;13.326;2022-10-26T12:32:51;6.10;;;3.85;;
44358;SDS011;30077;52.474;13.326;2022-10-26T12:37:56;7.85;;;3.95;;
44358;SDS011;30077;52.474;13.326;2022-10-26T12:53:24;5.05;;;3.00;;
44358;SDS011;30077;52.474;13.326;2022-10-26T13:03:38;4.90;;;2.67;;
44358;SDS011;30077;52.474;13.326;2022-10-26T13:08:53;6.63;;;2.70;;
44358;SDS011;30077;52.474;13.326;2022-10-26T13:13:56;4.15;;;2.53;;
44358;SDS011;30077;52.474;13.326;2022-10-26T13:19:00;2.75;;;2.15;;
44358;SDS011;30077;52.474;13.326;2022-10-26T13:24:00;3.83;;;2.80;;
44358;SDS011;30077;52.474;13.326;2022-10-26T13:29:03;7.68;;;5.75;;
44358;SDS011;30077;52.474;13.326;2022-10-26T13:34:04;6.47;;;2.90;;
44358;SDS011;30077;52.474;13.326;2022-10-26T13:39:19;4.95;;;2.53;;
44358;SDS011;30077;52.474;13.326;2022-10-26T13:44:24;5.68;;;2.60;;
44358;SDS011;30077;52.474;13.326;2022-10-26T13:49:32;4.32;;;2.20;;
44358;SDS011;30077;52.474;13.326;2022-10-26T13:54:58;4.65;;;1.95;;
44358;SDS011;30077;52.474;13.326;2022-10-26T14:00:20;5.28;;;2.05;;
44358;SDS011;30077;52.474;13.326;2022-10-26T14:05:22;4.72;;;1.80;;
44358;SDS011;30077;52.474;13.326;2022-10-26T14:15:36;3.55;;;1.80;;
44358;SDS011;30077;52.474;13.326;2022-10-26T14:20:38;5.22;;;2.45;;
44358;SDS011;30077;52.474;13.326;2022-10-26T14:25:38;7.83;;;2.83;;
44358;SDS011;30077;52.474;13.326;2022-10-26T14:30:39;4.30;;;2.20;;
44358;SDS011;30077;52.474;13.326;2022-10-26T14:35:39;4.05;;;2.42;;
44358;SDS011;30077;52.474;13.326;2022-10-26T14:40:41;3.40;;;1.90;;
44358;SDS011;30077;52.474;13.326;2022-10-26T14:45:43;4.55;;;1.92;;
44358;SDS011;30077;52.474;13.326;2022-10-26T14:51:05;3.00;;;2.00;;
44358;SDS011;30077;52.474;13.326;2022-10-26T14:56:16;9.00;;;3.13;;
44358;SDS011;30077;52.474;13.326;2022-10-26T15:06:21;5.10;;;2.67;;
44358;SDS011;30077;52.474;13.326;2022-10-26T15:11:33;3.35;;;2.25;;
44358;SDS011;30077;52.474;13.326;2022-10-26T15:16:37;4.50;;;2.97;;
44358;SDS011;30077;52.474;13.326;2022-10-26T15:21:44;6.18;;;3.20;;
44358;SDS011;30077;52.474;13.326;2022-10-26T15:26:46;6.30;;;2.83;;
44358;SDS011;30077;52.474;13.326;2022-10-26T15:31:47;6.65;;;3.40;;
44358;SDS011;30077;52.474;13.326;2022-10-26T15:36:59;9.60;;;3.50;;
44358;SDS011;30077;52.474;13.326;2022-10-26T15:42:10;11.25;;;4.00;;
44358;SDS011;30077;52.474;13.326;2022-10-26T15:47:16;5.72;;;3.47;;
44358;SDS011;30077;52.474;13.326;2022-10-26T15:52:18;6.55;;;3.92;;
44358;SDS011;30077;52.474;13.326;2022-10-26T15:57:18;7.68;;;4.55;;
44358;SDS011;30077;52.474;13.326;2022-10-26T16:02:18;8.98;;;4.82;;
44358;SDS011;30077;52.474;13.326;2022-10-26T16:07:18;11.85;;;4.80;;
44358;SDS011;30077;52.474;13.326;2022-10-26T16:12:20;9.70;;;5.10;;
44358;SDS011;30077;52.474;13.326;2022-10-26T16:17:20;6.82;;;4.32;;
44358;SDS011;30077;52.474;13.326;2022-10-26T16:22:20;8.00;;;5.27;;
44358;SDS011;30077;52.474;13.326;2022-10-26T16:27:20;9.60;;;4.78;;
44358;SDS011;30077;52.474;13.326;2022-10-26T16:32:21;8.15;;;5.00;;
44358;SDS011;30077;52.474;13.326;2022-10-26T16:37:21;8.15;;;5.00;;
44358;SDS011;30077;52.474;13.326;2022-10-26T16:42:21;11.30;;;6.63;;
44358;SDS011;30077;52.474;13.326;2022-10-26T16:47:22;13.75;;;6.63;;
44358;SDS011;30077;52.474;13.326;2022-10-26T16:52:22;16.63;;;7.90;;
44358;SDS011;30077;52.474;13.326;2022-10-26T16:57:22;13.88;;;7.05;;
44358;SDS011;30077;52.474;13.326;2022-10-26T17:02:23;14.30;;;7.00;;
44358;SDS011;30077;52.474;13.326;2022-10-26T17:07:23;10.75;;;6.25;;
44358;SDS011;30077;52.474;13.326;2022-10-26T17:12:23;12.98;;;6.50;;
44358;SDS011;30077;52.474;13.326;2022-10-26T17:17:24;12.45;;;6.82;;
44358;SDS011;30077;52.474;13.326;2022-10-26T17:22:24;11.75;;;6.28;;
44358;SDS011;30077;52.474;13.326;2022-10-26T17:27:25;11.70;;;7.03;;
44358;SDS011;30077;52.474;13.326;2022-10-26T17:32:25;12.93;;;6.75;;
44358;SDS011;30077;52.474;13.326;2022-10-26T17:37:26;12.20;;;7.57;;
44358;SDS011;30077;52.474;13.326;2022-10-26T17:42:26;12.53;;;7.07;;
44358;SDS011;30077;52.474;13.326;2022-10-26T17:47:26;12.30;;;7.00;;
44358;SDS011;30077;52.474;13.326;2022-10-26T17:52:26;12.17;;;6.90;;
44358;SDS011;30077;52.474;13.326;2022-10-26T17:57:27;7.50;;;5.90;;
44358;SDS011;30077;52.474;13.326;2022-10-26T18:02:27;9.55;;;5.75;;
44358;SDS011;30077;52.474;13.326;2022-10-26T18:07:28;8.83;;;5.33;;
44358;SDS011;30077;52.474;13.326;2022-10-26T18:12:28;7.97;;;5.90;;
44358;SDS011;30077;52.474;13.326;2022-10-26T18:17:29;8.00;;;5.65;;
44358;SDS011;30077;52.474;13.326;2022-10-26T18:22:30;8.32;;;5.60;;
44358;SDS011;30077;52.474;13.326;2022-10-26T18:27:32;9.70;;;6.10;;
44358;SDS011;30077;52.474;13.326;2022-10-26T18:32:32;9.57;;;6.18;;
44358;SDS011;30077;52.474;13.326;2022-10-26T18:37:34;10.13;;;6.17;;
44358;SDS011;30077;52.474;13.326;2022-10-26T18:42:35;11.73;;;6.23;;
44358;SDS011;30077;52.474;13.326;2022-10-26T18:47:36;10.60;;;5.72;;
44358;SDS011;30077;52.474;13.326;2022-10-26T18:52:36;11.13;;;6.63;;
44358;SDS011;30077;52.474;13.326;2022-10-26T18:57:36;13.38;;;7.57;;
44358;SDS011;30077;52.474;13.326;2022-10-26T19:02:37;16.70;;;10.47;;
44358;SDS011;30077;52.474;13.326;2022-10-26T19:07:37;17.23;;;9.73;;
44358;SDS011;30077;52.474;13.326;2022-10-26T19:12:38;23.48;;;14.18;;
44358;SDS011;30077;52.474;13.326;2022-10-26T19:17:39;17.70;;;11.73;;
44358;SDS011;30077;52.474;13.326;2022-10-26T19:22:39;19.45;;;11.13;;
44358;SDS011;30077;52.474;13.326;2022-10-26T19:27:39;19.40;;;9.50;;
44358;SDS011;30077;52.474;13.326;2022-10-26T19:32:39;17.30;;;9.63;;
44358;SDS011;30077;52.474;13.326;2022-10-26T19:37:40;15.90;;;9.55;;
44358;SDS011;30077;52.474;13.326;2022-10-26T19:42:40;14.48;;;8.23;;
44358;SDS011;30077;52.474;13.326;2022-10-26T19:47:40;15.32;;;10.15;;
44358;SDS011;30077;52.474;13.326;2022-10-26T19:52:40;13.13;;;8.95;;
44358;SDS011;30077;52.474;13.326;2022-10-26T19:57:41;10.45;;;7.90;;
44358;SDS011;30077;52.474;13.326;2022-10-26T20:02:41;11.18;;;8.05;;
44358;SDS011;30077;52.474;13.326;2022-10-26T20:07:41;11.75;;;7.97;;
44358;SDS011;30077;52.474;13.326;2022-10-26T20:12:42;14.13;;;8.15;;
44358;SDS011;30077;52.474;13.326;2022-10-26T20:17:42;13.35;;;7.88;;
44358;SDS011;30077;52.474;13.326;2022-10-26T20:22:42;13.50;;;7.88;;
44358;SDS011;30077;52.474;13.326;2022-10-26T20:27:46;17.95;;;11.00;;
44358;SDS011;30077;52.474;13.326;2022-10-26T20:32:46;19.33;;;11.70;;
44358;SDS011;30077;52.474;13.326;2022-10-26T20:37:47;17.17;;;11.43;;
44358;SDS011;30077;52.474;13.326;2022-10-26T20:42:48;22.08;;;13.13;;
44358;SDS011;30077;52.474;13.326;2022-10-26T20:47:51;14.85;;;10.00;;
44358;SDS011;30077;52.474;13.326;2022-10-26T20:53:02;15.98;;;9.38;;
44358;SDS011;30077;52.474;13.326;2022-10-26T20:58:04;14.35;;;8.63;;
44358;SDS011;30077;52.474;13.326;2022-10-26T21:03:10;17.63;;;9.73;;
44358;SDS011;30077;52.474;13.326;2022-10-26T21:08:11;12.65;;;8.70;;
44358;SDS011;30077;52.474;13.326;2022-10-26T21:13:12;13.68;;;9.00;;
44358;SDS011;30077;52.474;13.326;2022-10-26T21:18:12;14.00;;;9.55;;
44358;SDS011;30077;52.474;13.326;2022-10-26T21:23:12;13.70;;;9.70;;
44358;SDS011;30077;52.474;13.326;2022-10-26T21:28:13;18.97;;;11.70;;
44358;SDS011;30077;52.474;13.326;2022-10-26T21:33:13;17.67;;;11.02;;
44358;SDS011;30077;52.474;13.326;2022-10-26T21:38:13;21.73;;;11.53;;
44358;SDS011;30077;52.474;13.326;2022-10-26T21:43:14;15.65;;;9.90;;
44358;SDS011;30077;52.474;13.326;2022-10-26T21:48:14;15.80;;;10.57;;
44358;SDS011;30077;52.474;13.326;2022-10-26T21:53:14;15.95;;;9.73;;
44358;SDS011;30077;52.474;13.326;2022-10-26T21:58:15;14.38;;;9.75;;
44358;SDS011;30077;52.474;13.326;2022-10-26T22:03:16;15.25;;;10.15;;
44358;SDS011;30077;52.474;13.326;2022-10-26T22:08:16;15.40;;;10.25;;
44358;SDS011;30077;52.474;13.326;2022-10-26T22:13:17;17.15;;;9.88;;
44358;SDS011;30077;52.474;13.326;2022-10-26T22:18:17;16.23;;;9.60;;
44358;SDS011;30077;52.474;13.326;2022-10-26T22:23:17;17.13;;;11.10;;
44358;SDS011;30077;52.474;13.326;2022-10-26T22:28:17;16.15;;;9.98;;
44358;SDS011;30077;52.474;13.326;2022-10-26T22:33:18;24.77;;;16.10;;
44358;SDS011;30077;52.474;13.326;2022-10-26T22:38:18;21.90;;;13.23;;
44358;SDS011;30077;52.474;13.326;2022-10-26T22:43:18;17.15;;;10.45;;
44358;SDS011;30077;52.474;13.326;2022-10-26T22:48:19;13.70;;;10.27;;
44358;SDS011;30077;52.474;13.326;2022-10-26T22:53:19;17.65;;;10.57;;
44358;SDS011;30077;52.474;13.326;2022-10-26T22:58:20;13.75;;;10.30;;
44358;SDS011;30077;52.474;13.326;2022-10-26T23:03:20;19.15;;;10.48;;
44358;SDS011;30077;52.474;13.326;2022-10-26T23:08:20;16.10;;;9.37;;
44358;SDS011;30077;52.474;13.326;2022-10-26T23:13:20;14.48;;;10.35;;
44358;SDS011;30077;52.474;13.326;2022-10-26T23:18:21;15.90;;;9.70;;
44358;SDS011;30077;52.474;13.326;2022-10-26T23:23:22;17.25;;;10.90;;
44358;SDS011;30077;52.474;13.326;2022-10-26T23:28:22;23.43;;;15.73;;
44358;SDS011;30077;52.474;13.326;2022-10-26T23:33:23;23.20;;;15.43;;
44358;SDS011;30077;52.474;13.326;2022-10-26T23:38:26;15.85;;;11.23;;
44358;SDS011;30077;52.474;13.326;2022-10-26T23:43:26;16.58;;;10.57;;
44358;SDS011;30077;52.474;13.326;2022-10-26T23:48:27;15.25;;;10.50;;
44358;SDS011;30077;52.474;13.326;2022-10-26T23:53:27;15.20;;;9.93;;
44358;SDS011;30077;52.474;13.326;2022-10-26T23:58:28;15.55;;;10.15;;
